sensor_id;sensor_type;location;lat;lon;timestamp;P1;durP1;ratioP1;P2;durP2;ratioP2
5343;SDS011;2694;48.954;8.928;2023-04-03T00:01:00;3.83;;;1.40;;
5343;SDS011;2694;48.954;8.928;2023-04-03T00:03:28;0.85;;;0.70;;
5343;SDS011;2694;48.954;8.928;2023-04-03T00:05:56;3.40;;;1.30;;
5343;SDS011;2694;48.954;8.928;2023-04-03T00:08:23;2.25;;;1.30;;
5343;SDS011;2694;48.954;8.928;2023-04-03T00:10:50;2.90;;;1.35;;
5343;SDS011;2694;48.954;8.928;2023-04-03T00:13:17;4.70;;;1.30;;
5343;SDS011;2694;48.954;8.928;2023-04-03T00:15:44;2.33;;;1.00;;
5343;SDS011;2694;48.954;8.928;2023-04-03T00:18:11;2.88;;;1.00;;
5343;SDS011;2694;48.954;8.928;2023-04-03T00:20:38;3.47;;;1.23;;
5343;SDS011;2694;48.954;8.928;2023-04-03T00:23:07;4.35;;;1.20;;
5343;SDS011;2694;48.954;8.928;2023-04-03T00:25:34;2.00;;;0.90;;
5343;SDS011;2694;48.954;8.928;2023-04-03T00:28:01;4.20;;;1.30;;
5343;SDS011;2694;48.954;8.928;2023-04-03T00:30:28;2.58;;;1.13;;
5343;SDS011;2694;48.954;8.928;2023-04-03T00:32:55;1.48;;;1.02;;
5343;SDS011;2694;48.954;8.928;2023-04-03T00:35:22;1.80;;;1.20;;
5343;SDS011;2694;48.954;8.928;2023-04-03T00:37:51;4.53;;;1.60;;
5343;SDS011;2694;48.954;8.928;2023-04-03T00:40:21;2.22;;;1.23;;
5343;SDS011;2694;48.954;8.928;2023-04-03T00:42:50;1.65;;;1.20;;
5343;SDS011;2694;48.954;8.928;2023-04-03T00:45:29;6.00;;;2.65;;
5343;SDS011;2694;48.954;8.928;2023-04-03T00:48:00;3.50;;;1.10;;
5343;SDS011;2694;48.954;8.928;2023-04-03T00:50:30;1.60;;;1.00;;
5343;SDS011;2694;48.954;8.928;2023-04-03T00:53:00;2.63;;;1.08;;
5343;SDS011;2694;48.954;8.928;2023-04-03T00:55:29;2.70;;;1.20;;
5343;SDS011;2694;48.954;8.928;2023-04-03T00:57:56;2.80;;;1.30;;
5343;SDS011;2694;48.954;8.928;2023-04-03T01:00:24;6.30;;;1.23;;
5343;SDS011;2694;48.954;8.928;2023-04-03T01:02:51;1.90;;;0.80;;
5343;SDS011;2694;48.954;8.928;2023-04-03T01:05:18;3.15;;;1.15;;
5343;SDS011;2694;48.954;8.928;2023-04-03T01:07:46;2.80;;;1.13;;
5343;SDS011;2694;48.954;8.928;2023-04-03T01:10:16;1.75;;;1.02;;
5343;SDS011;2694;48.954;8.928;2023-04-03T01:12:46;2.30;;;1.02;;
5343;SDS011;2694;48.954;8.928;2023-04-03T01:15:15;4.78;;;0.95;;
5343;SDS011;2694;48.954;8.928;2023-04-03T01:17:44;3.78;;;1.30;;
5343;SDS011;2694;48.954;8.928;2023-04-03T01:20:18;4.57;;;1.50;;
5343;SDS011;2694;48.954;8.928;2023-04-03T01:23:06;3.00;;;1.30;;
5343;SDS011;2694;48.954;8.928;2023-04-03T01:25:56;4.00;;;1.50;;
5343;SDS011;2694;48.954;8.928;2023-04-03T01:28:25;4.10;;;1.30;;
5343;SDS011;2694;48.954;8.928;2023-04-03T01:30:56;2.03;;;1.30;;
5343;SDS011;2694;48.954;8.928;2023-04-03T01:33:29;2.60;;;1.10;;
5343;SDS011;2694;48.954;8.928;2023-04-03T01:35:56;4.75;;;1.20;;
5343;SDS011;2694;48.954;8.928;2023-04-03T01:38:24;2.33;;;1.15;;
5343;SDS011;2694;48.954;8.928;2023-04-03T01:40:51;4.45;;;1.40;;
5343;SDS011;2694;48.954;8.928;2023-04-03T01:43:17;2.50;;;1.17;;
5343;SDS011;2694;48.954;8.928;2023-04-03T01:45:44;2.50;;;1.70;;
5343;SDS011;2694;48.954;8.928;2023-04-03T01:48:14;2.05;;;1.30;;
5343;SDS011;2694;48.954;8.928;2023-04-03T01:50:42;4.05;;;1.13;;
5343;SDS011;2694;48.954;8.928;2023-04-03T01:53:09;2.80;;;1.40;;
5343;SDS011;2694;48.954;8.928;2023-04-03T01:55:36;2.23;;;1.27;;
5343;SDS011;2694;48.954;8.928;2023-04-03T01:58:03;3.30;;;1.60;;
5343;SDS011;2694;48.954;8.928;2023-04-03T02:00:30;5.63;;;1.48;;
5343;SDS011;2694;48.954;8.928;2023-04-03T02:02:57;2.58;;;1.20;;
5343;SDS011;2694;48.954;8.928;2023-04-03T02:05:24;1.70;;;1.00;;
5343;SDS011;2694;48.954;8.928;2023-04-03T02:07:52;1.55;;;1.10;;
5343;SDS011;2694;48.954;8.928;2023-04-03T02:10:19;2.78;;;1.20;;
5343;SDS011;2694;48.954;8.928;2023-04-03T02:12:46;3.33;;;1.40;;
5343;SDS011;2694;48.954;8.928;2023-04-03T02:15:13;4.13;;;1.42;;
5343;SDS011;2694;48.954;8.928;2023-04-03T02:17:40;2.05;;;1.40;;
5343;SDS011;2694;48.954;8.928;2023-04-03T02:20:08;3.45;;;1.20;;
5343;SDS011;2694;48.954;8.928;2023-04-03T02:22:35;3.30;;;1.30;;
5343;SDS011;2694;48.954;8.928;2023-04-03T02:25:04;3.70;;;1.60;;
5343;SDS011;2694;48.954;8.928;2023-04-03T02:27:31;1.70;;;0.93;;
5343;SDS011;2694;48.954;8.928;2023-04-03T02:29:58;2.60;;;1.30;;
5343;SDS011;2694;48.954;8.928;2023-04-03T02:32:25;3.40;;;1.50;;
5343;SDS011;2694;48.954;8.928;2023-04-03T02:34:52;1.50;;;0.90;;
5343;SDS011;2694;48.954;8.928;2023-04-03T02:37:19;3.50;;;1.10;;
5343;SDS011;2694;48.954;8.928;2023-04-03T02:39:46;2.42;;;1.50;;
5343;SDS011;2694;48.954;8.928;2023-04-03T02:42:14;11.97;;;1.43;;
5343;SDS011;2694;48.954;8.928;2023-04-03T02:44:41;2.70;;;1.60;;
5343;SDS011;2694;48.954;8.928;2023-04-03T02:47:08;2.72;;;1.20;;
5343;SDS011;2694;48.954;8.928;2023-04-03T02:49:35;2.03;;;1.20;;
5343;SDS011;2694;48.954;8.928;2023-04-03T02:52:02;1.98;;;1.30;;
5343;SDS011;2694;48.954;8.928;2023-04-03T02:54:29;2.92;;;1.13;;
5343;SDS011;2694;48.954;8.928;2023-04-03T02:56:56;4.60;;;1.60;;
5343;SDS011;2694;48.954;8.928;2023-04-03T02:59:24;3.40;;;1.20;;
5343;SDS011;2694;48.954;8.928;2023-04-03T03:01:51;2.80;;;1.40;;
5343;SDS011;2694;48.954;8.928;2023-04-03T03:04:18;1.80;;;1.20;;
5343;SDS011;2694;48.954;8.928;2023-04-03T03:06:45;3.30;;;1.30;;
5343;SDS011;2694;48.954;8.928;2023-04-03T03:09:12;4.57;;;1.27;;
5343;SDS011;2694;48.954;8.928;2023-04-03T03:11:39;2.45;;;1.30;;
5343;SDS011;2694;48.954;8.928;2023-04-03T03:14:06;2.30;;;1.40;;
5343;SDS011;2694;48.954;8.928;2023-04-03T03:16:35;2.70;;;1.20;;
5343;SDS011;2694;48.954;8.928;2023-04-03T03:19:02;3.97;;;1.25;;
5343;SDS011;2694;48.954;8.928;2023-04-03T03:21:29;2.13;;;1.40;;
5343;SDS011;2694;48.954;8.928;2023-04-03T03:23:56;5.60;;;1.63;;
5343;SDS011;2694;48.954;8.928;2023-04-03T03:26:23;2.45;;;1.13;;
5343;SDS011;2694;48.954;8.928;2023-04-03T03:28:50;2.50;;;1.20;;
5343;SDS011;2694;48.954;8.928;2023-04-03T03:31:17;4.40;;;1.10;;
5343;SDS011;2694;48.954;8.928;2023-04-03T03:33:46;2.00;;;1.00;;
5343;SDS011;2694;48.954;8.928;2023-04-03T03:36:12;2.20;;;1.38;;
5343;SDS011;2694;48.954;8.928;2023-04-03T03:38:39;3.20;;;1.33;;
5343;SDS011;2694;48.954;8.928;2023-04-03T03:41:06;2.88;;;1.20;;
5343;SDS011;2694;48.954;8.928;2023-04-03T03:43:33;3.10;;;1.20;;
5343;SDS011;2694;48.954;8.928;2023-04-03T03:46:00;2.85;;;1.30;;
5343;SDS011;2694;48.954;8.928;2023-04-03T03:48:27;2.20;;;1.13;;
5343;SDS011;2694;48.954;8.928;2023-04-03T03:50:55;5.30;;;1.33;;
5343;SDS011;2694;48.954;8.928;2023-04-03T03:53:22;3.10;;;1.30;;
5343;SDS011;2694;48.954;8.928;2023-04-03T03:55:49;4.20;;;1.60;;
5343;SDS011;2694;48.954;8.928;2023-04-03T03:58:16;3.47;;;1.50;;
5343;SDS011;2694;48.954;8.928;2023-04-03T04:00:43;4.55;;;1.52;;
5343;SDS011;2694;48.954;8.928;2023-04-03T04:03:10;3.13;;;1.80;;
5343;SDS011;2694;48.954;8.928;2023-04-03T04:05:37;3.80;;;1.58;;
5343;SDS011;2694;48.954;8.928;2023-04-03T04:08:05;3.50;;;1.60;;
5343;SDS011;2694;48.954;8.928;2023-04-03T04:10:32;3.00;;;1.00;;
5343;SDS011;2694;48.954;8.928;2023-04-03T04:12:59;3.90;;;1.50;;
5343;SDS011;2694;48.954;8.928;2023-04-03T04:15:26;2.05;;;1.00;;
5343;SDS011;2694;48.954;8.928;2023-04-03T04:17:53;2.70;;;1.20;;
5343;SDS011;2694;48.954;8.928;2023-04-03T04:20:20;3.65;;;1.38;;
5343;SDS011;2694;48.954;8.928;2023-04-03T04:22:47;4.45;;;1.25;;
5343;SDS011;2694;48.954;8.928;2023-04-03T04:25:15;3.10;;;1.00;;
5343;SDS011;2694;48.954;8.928;2023-04-03T04:27:42;1.38;;;1.20;;
5343;SDS011;2694;48.954;8.928;2023-04-03T04:30:09;4.13;;;1.20;;
5343;SDS011;2694;48.954;8.928;2023-04-03T04:32:37;4.00;;;1.50;;
5343;SDS011;2694;48.954;8.928;2023-04-03T04:35:04;1.95;;;1.23;;
5343;SDS011;2694;48.954;8.928;2023-04-03T04:37:32;2.40;;;1.38;;
5343;SDS011;2694;48.954;8.928;2023-04-03T04:39:58;5.10;;;1.92;;
5343;SDS011;2694;48.954;8.928;2023-04-03T04:42:27;3.53;;;1.52;;
5343;SDS011;2694;48.954;8.928;2023-04-03T04:44:54;2.70;;;1.20;;
5343;SDS011;2694;48.954;8.928;2023-04-03T04:47:21;3.70;;;1.40;;
5343;SDS011;2694;48.954;8.928;2023-04-03T04:49:48;8.02;;;1.33;;
5343;SDS011;2694;48.954;8.928;2023-04-03T04:52:15;1.40;;;1.10;;
5343;SDS011;2694;48.954;8.928;2023-04-03T04:54:42;3.60;;;1.70;;
5343;SDS011;2694;48.954;8.928;2023-04-03T04:57:08;2.90;;;1.70;;
5343;SDS011;2694;48.954;8.928;2023-04-03T04:59:37;2.17;;;1.27;;
5343;SDS011;2694;48.954;8.928;2023-04-03T05:02:05;2.75;;;1.50;;
5343;SDS011;2694;48.954;8.928;2023-04-03T05:04:31;2.67;;;1.50;;
5343;SDS011;2694;48.954;8.928;2023-04-03T05:06:59;4.45;;;1.30;;
5343;SDS011;2694;48.954;8.928;2023-04-03T05:09:26;2.22;;;1.20;;
5343;SDS011;2694;48.954;8.928;2023-04-03T05:11:53;4.80;;;1.55;;
5343;SDS011;2694;48.954;8.928;2023-04-03T05:14:21;4.40;;;2.10;;
5343;SDS011;2694;48.954;8.928;2023-04-03T05:16:49;2.70;;;1.40;;
5343;SDS011;2694;48.954;8.928;2023-04-03T05:19:18;3.53;;;1.20;;
5343;SDS011;2694;48.954;8.928;2023-04-03T05:21:45;5.35;;;1.30;;
5343;SDS011;2694;48.954;8.928;2023-04-03T05:24:12;3.95;;;1.63;;
5343;SDS011;2694;48.954;8.928;2023-04-03T05:26:39;3.20;;;1.60;;
5343;SDS011;2694;48.954;8.928;2023-04-03T05:29:06;2.28;;;1.40;;
5343;SDS011;2694;48.954;8.928;2023-04-03T05:31:33;3.45;;;1.40;;
5343;SDS011;2694;48.954;8.928;2023-04-03T05:34:02;3.70;;;1.10;;
5343;SDS011;2694;48.954;8.928;2023-04-03T05:36:29;3.50;;;1.58;;
5343;SDS011;2694;48.954;8.928;2023-04-03T05:38:56;2.10;;;1.50;;
5343;SDS011;2694;48.954;8.928;2023-04-03T05:41:23;3.15;;;1.60;;
5343;SDS011;2694;48.954;8.928;2023-04-03T05:43:50;3.80;;;1.50;;
5343;SDS011;2694;48.954;8.928;2023-04-03T05:46:18;5.10;;;2.10;;
5343;SDS011;2694;48.954;8.928;2023-04-03T05:48:46;2.20;;;1.30;;
5343;SDS011;2694;48.954;8.928;2023-04-03T05:51:15;2.92;;;1.23;;
5343;SDS011;2694;48.954;8.928;2023-04-03T05:53:44;3.60;;;1.70;;
5343;SDS011;2694;48.954;8.928;2023-04-03T05:56:11;5.05;;;1.40;;
5343;SDS011;2694;48.954;8.928;2023-04-03T05:58:38;4.32;;;1.70;;
5343;SDS011;2694;48.954;8.928;2023-04-03T06:01:05;4.03;;;1.75;;
5343;SDS011;2694;48.954;8.928;2023-04-03T06:03:32;1.80;;;1.10;;
5343;SDS011;2694;48.954;8.928;2023-04-03T06:06:01;2.10;;;1.10;;
5343;SDS011;2694;48.954;8.928;2023-04-03T06:08:32;6.45;;;1.67;;
5343;SDS011;2694;48.954;8.928;2023-04-03T06:11:02;3.13;;;1.52;;
5343;SDS011;2694;48.954;8.928;2023-04-03T06:13:28;2.30;;;1.10;;
5343;SDS011;2694;48.954;8.928;2023-04-03T06:15:55;3.17;;;1.45;;
5343;SDS011;2694;48.954;8.928;2023-04-03T06:18:23;2.80;;;1.60;;
5343;SDS011;2694;48.954;8.928;2023-04-03T06:20:50;3.30;;;1.15;;
5343;SDS011;2694;48.954;8.928;2023-04-03T06:23:17;2.70;;;1.60;;
5343;SDS011;2694;48.954;8.928;2023-04-03T06:25:45;4.22;;;1.48;;
5343;SDS011;2694;48.954;8.928;2023-04-03T06:28:12;6.05;;;1.75;;
5343;SDS011;2694;48.954;8.928;2023-04-03T06:30:39;5.88;;;1.63;;
5343;SDS011;2694;48.954;8.928;2023-04-03T06:33:06;2.33;;;1.58;;
5343;SDS011;2694;48.954;8.928;2023-04-03T06:35:33;3.47;;;1.65;;
5343;SDS011;2694;48.954;8.928;2023-04-03T06:38:01;3.90;;;1.80;;
5343;SDS011;2694;48.954;8.928;2023-04-03T06:40:34;3.53;;;1.30;;
5343;SDS011;2694;48.954;8.928;2023-04-03T06:43:03;4.95;;;1.83;;
5343;SDS011;2694;48.954;8.928;2023-04-03T06:45:30;4.28;;;1.50;;
5343;SDS011;2694;48.954;8.928;2023-04-03T06:47:57;3.50;;;1.70;;
5343;SDS011;2694;48.954;8.928;2023-04-03T06:50:23;4.15;;;1.73;;
5343;SDS011;2694;48.954;8.928;2023-04-03T06:52:51;4.53;;;1.50;;
5343;SDS011;2694;48.954;8.928;2023-04-03T06:55:21;2.00;;;1.60;;
5343;SDS011;2694;48.954;8.928;2023-04-03T06:57:47;7.43;;;1.70;;
5343;SDS011;2694;48.954;8.928;2023-04-03T07:00:16;4.88;;;1.80;;
5343;SDS011;2694;48.954;8.928;2023-04-03T07:02:44;5.78;;;2.10;;
5343;SDS011;2694;48.954;8.928;2023-04-03T07:05:11;4.07;;;2.00;;
5343;SDS011;2694;48.954;8.928;2023-04-03T07:07:38;5.57;;;2.30;;
5343;SDS011;2694;48.954;8.928;2023-04-03T07:10:06;3.28;;;1.90;;
5343;SDS011;2694;48.954;8.928;2023-04-03T07:12:35;6.07;;;2.17;;
5343;SDS011;2694;48.954;8.928;2023-04-03T07:15:02;2.38;;;1.77;;
5343;SDS011;2694;48.954;8.928;2023-04-03T07:17:31;3.70;;;1.90;;
5343;SDS011;2694;48.954;8.928;2023-04-03T07:19:58;5.10;;;1.97;;
5343;SDS011;2694;48.954;8.928;2023-04-03T07:22:25;7.10;;;2.20;;
5343;SDS011;2694;48.954;8.928;2023-04-03T07:24:52;4.60;;;1.90;;
5343;SDS011;2694;48.954;8.928;2023-04-03T07:27:19;2.60;;;1.80;;
5343;SDS011;2694;48.954;8.928;2023-04-03T07:29:46;5.15;;;2.30;;
5343;SDS011;2694;48.954;8.928;2023-04-03T07:32:13;5.28;;;2.42;;
5343;SDS011;2694;48.954;8.928;2023-04-03T07:34:42;7.32;;;2.30;;
5343;SDS011;2694;48.954;8.928;2023-04-03T07:37:09;6.32;;;2.10;;
5343;SDS011;2694;48.954;8.928;2023-04-03T07:39:36;5.57;;;2.10;;
5343;SDS011;2694;48.954;8.928;2023-04-03T07:42:03;5.20;;;2.20;;
5343;SDS011;2694;48.954;8.928;2023-04-03T07:44:30;6.65;;;2.70;;
5343;SDS011;2694;48.954;8.928;2023-04-03T07:46:57;6.68;;;2.33;;
5343;SDS011;2694;48.954;8.928;2023-04-03T07:49:24;6.25;;;2.00;;
5343;SDS011;2694;48.954;8.928;2023-04-03T07:51:53;5.47;;;2.20;;
5343;SDS011;2694;48.954;8.928;2023-04-03T07:54:20;7.90;;;1.98;;
5343;SDS011;2694;48.954;8.928;2023-04-03T07:56:47;5.93;;;2.40;;
5343;SDS011;2694;48.954;8.928;2023-04-03T07:59:14;8.10;;;2.20;;
5343;SDS011;2694;48.954;8.928;2023-04-03T08:01:41;11.40;;;2.47;;
5343;SDS011;2694;48.954;8.928;2023-04-03T08:04:08;10.95;;;1.90;;
5343;SDS011;2694;48.954;8.928;2023-04-03T08:06:36;8.50;;;2.35;;
5343;SDS011;2694;48.954;8.928;2023-04-03T08:09:04;6.47;;;2.08;;
5343;SDS011;2694;48.954;8.928;2023-04-03T08:11:31;7.40;;;2.00;;
5343;SDS011;2694;48.954;8.928;2023-04-03T08:13:58;4.68;;;1.90;;
5343;SDS011;2694;48.954;8.928;2023-04-03T08:16:25;5.53;;;2.03;;
5343;SDS011;2694;48.954;8.928;2023-04-03T08:18:53;11.57;;;2.47;;
5343;SDS011;2694;48.954;8.928;2023-04-03T08:21:20;3.97;;;1.93;;
5343;SDS011;2694;48.954;8.928;2023-04-03T08:23:47;4.90;;;2.40;;
5343;SDS011;2694;48.954;8.928;2023-04-03T08:26:18;5.88;;;1.85;;
5343;SDS011;2694;48.954;8.928;2023-04-03T08:28:47;4.10;;;1.65;;
5343;SDS011;2694;48.954;8.928;2023-04-03T08:31:15;6.43;;;1.80;;
5343;SDS011;2694;48.954;8.928;2023-04-03T08:33:45;6.80;;;1.80;;
5343;SDS011;2694;48.954;8.928;2023-04-03T08:36:16;5.05;;;1.80;;
5343;SDS011;2694;48.954;8.928;2023-04-03T08:38:45;6.57;;;1.90;;
5343;SDS011;2694;48.954;8.928;2023-04-03T08:41:14;3.75;;;1.98;;
5343;SDS011;2694;48.954;8.928;2023-04-03T08:43:47;6.22;;;1.50;;
5343;SDS011;2694;48.954;8.928;2023-04-03T08:46:26;4.15;;;1.80;;
5343;SDS011;2694;48.954;8.928;2023-04-03T08:49:06;3.70;;;1.80;;
5343;SDS011;2694;48.954;8.928;2023-04-03T08:51:37;1.88;;;1.33;;
5343;SDS011;2694;48.954;8.928;2023-04-03T08:54:12;4.00;;;1.80;;
5343;SDS011;2694;48.954;8.928;2023-04-03T08:56:52;3.05;;;1.42;;
5343;SDS011;2694;48.954;8.928;2023-04-03T08:59:22;6.60;;;1.70;;
5343;SDS011;2694;48.954;8.928;2023-04-03T09:01:54;6.00;;;1.90;;
5343;SDS011;2694;48.954;8.928;2023-04-03T09:04:23;7.45;;;1.92;;
5343;SDS011;2694;48.954;8.928;2023-04-03T09:06:55;3.17;;;1.30;;
5343;SDS011;2694;48.954;8.928;2023-04-03T09:09:29;5.63;;;1.70;;
5343;SDS011;2694;48.954;8.928;2023-04-03T09:12:00;4.03;;;1.10;;
5343;SDS011;2694;48.954;8.928;2023-04-03T09:14:36;8.05;;;1.40;;
5343;SDS011;2694;48.954;8.928;2023-04-03T09:17:09;6.35;;;1.63;;
5343;SDS011;2694;48.954;8.928;2023-04-03T09:19:41;4.50;;;1.60;;
5343;SDS011;2694;48.954;8.928;2023-04-03T09:22:17;3.40;;;1.30;;
5343;SDS011;2694;48.954;8.928;2023-04-03T09:24:49;6.40;;;1.40;;
5343;SDS011;2694;48.954;8.928;2023-04-03T09:27:23;4.50;;;1.40;;
5343;SDS011;2694;48.954;8.928;2023-04-03T09:29:52;2.97;;;1.30;;
5343;SDS011;2694;48.954;8.928;2023-04-03T09:32:22;5.25;;;1.70;;
5343;SDS011;2694;48.954;8.928;2023-04-03T09:34:53;8.30;;;1.58;;
5343;SDS011;2694;48.954;8.928;2023-04-03T09:37:35;2.80;;;1.33;;
5343;SDS011;2694;48.954;8.928;2023-04-03T09:40:05;4.78;;;1.30;;
5343;SDS011;2694;48.954;8.928;2023-04-03T09:42:53;5.20;;;1.60;;
5343;SDS011;2694;48.954;8.928;2023-04-03T09:45:23;3.10;;;1.50;;
5343;SDS011;2694;48.954;8.928;2023-04-03T09:48:06;8.02;;;1.50;;
5343;SDS011;2694;48.954;8.928;2023-04-03T09:50:34;4.75;;;1.40;;
5343;SDS011;2694;48.954;8.928;2023-04-03T09:53:04;3.05;;;1.30;;
5343;SDS011;2694;48.954;8.928;2023-04-03T09:55:33;4.15;;;1.35;;
5343;SDS011;2694;48.954;8.928;2023-04-03T09:58:22;3.60;;;1.35;;
5343;SDS011;2694;48.954;8.928;2023-04-03T10:00:55;1.98;;;1.25;;
5343;SDS011;2694;48.954;8.928;2023-04-03T10:03:25;6.53;;;1.10;;
5343;SDS011;2694;48.954;8.928;2023-04-03T10:05:54;3.40;;;1.10;;
5343;SDS011;2694;48.954;8.928;2023-04-03T10:08:24;3.00;;;1.08;;
5343;SDS011;2694;48.954;8.928;2023-04-03T10:11:05;2.75;;;1.10;;
5343;SDS011;2694;48.954;8.928;2023-04-03T10:13:35;3.30;;;1.33;;
5343;SDS011;2694;48.954;8.928;2023-04-03T10:16:06;2.30;;;0.90;;
5343;SDS011;2694;48.954;8.928;2023-04-03T10:18:37;3.00;;;1.20;;
5343;SDS011;2694;48.954;8.928;2023-04-03T10:21:10;2.70;;;1.10;;
5343;SDS011;2694;48.954;8.928;2023-04-03T10:23:42;3.70;;;1.48;;
5343;SDS011;2694;48.954;8.928;2023-04-03T10:26:12;3.50;;;1.20;;
5343;SDS011;2694;48.954;8.928;2023-04-03T10:28:52;2.10;;;0.90;;
5343;SDS011;2694;48.954;8.928;2023-04-03T10:31:27;4.57;;;1.30;;
5343;SDS011;2694;48.954;8.928;2023-04-03T10:34:01;3.38;;;1.50;;
5343;SDS011;2694;48.954;8.928;2023-04-03T10:36:36;6.60;;;1.08;;
5343;SDS011;2694;48.954;8.928;2023-04-03T10:39:12;2.40;;;1.45;;
5343;SDS011;2694;48.954;8.928;2023-04-03T10:41:49;9.25;;;1.70;;
5343;SDS011;2694;48.954;8.928;2023-04-03T10:44:27;4.53;;;1.80;;
5343;SDS011;2694;48.954;8.928;2023-04-03T10:47:06;3.55;;;1.17;;
5343;SDS011;2694;48.954;8.928;2023-04-03T10:49:42;5.13;;;1.60;;
5343;SDS011;2694;48.954;8.928;2023-04-03T10:52:18;2.80;;;1.10;;
5343;SDS011;2694;48.954;8.928;2023-04-03T10:54:53;5.38;;;1.30;;
5343;SDS011;2694;48.954;8.928;2023-04-03T10:57:27;3.25;;;1.20;;
5343;SDS011;2694;48.954;8.928;2023-04-03T10:59:56;2.40;;;0.90;;
5343;SDS011;2694;48.954;8.928;2023-04-03T11:02:29;2.97;;;0.80;;
5343;SDS011;2694;48.954;8.928;2023-04-03T11:04:59;3.60;;;1.30;;
5343;SDS011;2694;48.954;8.928;2023-04-03T11:07:32;3.53;;;1.33;;
5343;SDS011;2694;48.954;8.928;2023-04-03T11:10:03;2.97;;;1.10;;
5343;SDS011;2694;48.954;8.928;2023-04-03T11:12:40;7.03;;;1.33;;
5343;SDS011;2694;48.954;8.928;2023-04-03T11:15:11;5.90;;;1.15;;
5343;SDS011;2694;48.954;8.928;2023-04-03T11:17:43;4.22;;;1.23;;
5343;SDS011;2694;48.954;8.928;2023-04-03T11:20:16;2.40;;;1.33;;
5343;SDS011;2694;48.954;8.928;2023-04-03T11:22:47;3.70;;;1.20;;
5343;SDS011;2694;48.954;8.928;2023-04-03T11:25:18;2.00;;;1.20;;
5343;SDS011;2694;48.954;8.928;2023-04-03T11:27:48;5.45;;;1.20;;
5343;SDS011;2694;48.954;8.928;2023-04-03T11:30:20;2.35;;;1.00;;
5343;SDS011;2694;48.954;8.928;2023-04-03T11:33:02;4.20;;;1.10;;
5343;SDS011;2694;48.954;8.928;2023-04-03T11:35:41;5.40;;;1.60;;
5343;SDS011;2694;48.954;8.928;2023-04-03T11:38:10;5.63;;;1.80;;
5343;SDS011;2694;48.954;8.928;2023-04-03T11:40:45;5.07;;;2.45;;
5343;SDS011;2694;48.954;8.928;2023-04-03T11:43:18;2.63;;;1.20;;
5343;SDS011;2694;48.954;8.928;2023-04-03T11:45:51;2.30;;;1.20;;
5343;SDS011;2694;48.954;8.928;2023-04-03T12:12:31;4.18;;;1.20;;
5343;SDS011;2694;48.954;8.928;2023-04-03T12:17:51;3.00;;;1.20;;
5343;SDS011;2694;48.954;8.928;2023-04-03T12:23:24;1.80;;;0.93;;
5343;SDS011;2694;48.954;8.928;2023-04-03T12:26:02;3.33;;;1.20;;
5343;SDS011;2694;48.954;8.928;2023-04-03T12:28:35;5.13;;;1.10;;
5343;SDS011;2694;48.954;8.928;2023-04-03T12:31:05;2.97;;;1.00;;
5343;SDS011;2694;48.954;8.928;2023-04-03T12:33:38;4.30;;;1.20;;
5343;SDS011;2694;48.954;8.928;2023-04-03T12:36:36;4.00;;;0.98;;
5343;SDS011;2694;48.954;8.928;2023-04-03T12:39:30;2.00;;;1.20;;
5343;SDS011;2694;48.954;8.928;2023-04-03T12:42:16;5.22;;;0.80;;
5343;SDS011;2694;48.954;8.928;2023-04-03T12:44:53;1.98;;;0.98;;
5343;SDS011;2694;48.954;8.928;2023-04-03T12:47:29;4.18;;;1.20;;
5343;SDS011;2694;48.954;8.928;2023-04-03T12:50:01;2.10;;;0.82;;
5343;SDS011;2694;48.954;8.928;2023-04-03T12:52:33;6.15;;;1.00;;
5343;SDS011;2694;48.954;8.928;2023-04-03T12:55:12;2.65;;;0.80;;
5343;SDS011;2694;48.954;8.928;2023-04-03T12:57:43;3.47;;;1.40;;
5343;SDS011;2694;48.954;8.928;2023-04-03T13:03:05;3.57;;;1.00;;
5343;SDS011;2694;48.954;8.928;2023-04-03T13:05:45;2.90;;;1.20;;
5343;SDS011;2694;48.954;8.928;2023-04-03T13:08:12;3.13;;;1.20;;
5343;SDS011;2694;48.954;8.928;2023-04-03T13:10:44;4.70;;;1.35;;
5343;SDS011;2694;48.954;8.928;2023-04-03T13:13:18;4.95;;;1.75;;
5343;SDS011;2694;48.954;8.928;2023-04-03T13:15:46;2.88;;;1.17;;
5343;SDS011;2694;48.954;8.928;2023-04-03T13:18:22;6.20;;;1.40;;
5343;SDS011;2694;48.954;8.928;2023-04-03T13:20:56;3.75;;;1.30;;
5343;SDS011;2694;48.954;8.928;2023-04-03T13:23:29;4.20;;;1.45;;
5343;SDS011;2694;48.954;8.928;2023-04-03T13:25:58;2.65;;;1.15;;
5343;SDS011;2694;48.954;8.928;2023-04-03T13:28:28;5.10;;;0.90;;
5343;SDS011;2694;48.954;8.928;2023-04-03T13:30:59;3.65;;;1.40;;
5343;SDS011;2694;48.954;8.928;2023-04-03T13:33:31;2.70;;;1.20;;
5343;SDS011;2694;48.954;8.928;2023-04-03T13:36:04;2.33;;;1.00;;
5343;SDS011;2694;48.954;8.928;2023-04-03T13:38:34;3.60;;;1.30;;
5343;SDS011;2694;48.954;8.928;2023-04-03T13:41:03;5.85;;;1.60;;
5343;SDS011;2694;48.954;8.928;2023-04-03T13:43:33;6.07;;;1.00;;
5343;SDS011;2694;48.954;8.928;2023-04-03T13:46:03;3.90;;;1.20;;
5343;SDS011;2694;48.954;8.928;2023-04-03T13:48:36;5.10;;;0.82;;
5343;SDS011;2694;48.954;8.928;2023-04-03T13:51:07;2.75;;;1.08;;
5343;SDS011;2694;48.954;8.928;2023-04-03T13:53:45;3.70;;;1.30;;
5343;SDS011;2694;48.954;8.928;2023-04-03T13:56:19;3.75;;;1.20;;
5343;SDS011;2694;48.954;8.928;2023-04-03T13:58:54;3.58;;;0.93;;
5343;SDS011;2694;48.954;8.928;2023-04-03T14:01:47;3.80;;;1.00;;
5343;SDS011;2694;48.954;8.928;2023-04-03T14:04:17;3.23;;;1.20;;
5343;SDS011;2694;48.954;8.928;2023-04-03T14:06:46;5.18;;;1.10;;
5343;SDS011;2694;48.954;8.928;2023-04-03T14:09:14;4.65;;;1.70;;
5343;SDS011;2694;48.954;8.928;2023-04-03T14:11:44;2.45;;;1.30;;
5343;SDS011;2694;48.954;8.928;2023-04-03T14:14:14;2.25;;;1.20;;
5343;SDS011;2694;48.954;8.928;2023-04-03T14:16:44;4.47;;;1.10;;
5343;SDS011;2694;48.954;8.928;2023-04-03T14:19:17;3.17;;;1.20;;
5343;SDS011;2694;48.954;8.928;2023-04-03T14:21:47;3.95;;;1.40;;
5343;SDS011;2694;48.954;8.928;2023-04-03T14:24:15;3.88;;;1.27;;
5343;SDS011;2694;48.954;8.928;2023-04-03T14:26:44;3.83;;;1.10;;
5343;SDS011;2694;48.954;8.928;2023-04-03T14:29:12;3.80;;;1.30;;
5343;SDS011;2694;48.954;8.928;2023-04-03T14:31:40;2.97;;;1.10;;
5343;SDS011;2694;48.954;8.928;2023-04-03T14:34:07;2.50;;;1.00;;
5343;SDS011;2694;48.954;8.928;2023-04-03T14:36:35;3.10;;;1.00;;
5343;SDS011;2694;48.954;8.928;2023-04-03T14:39:03;4.97;;;1.25;;
5343;SDS011;2694;48.954;8.928;2023-04-03T14:41:31;2.47;;;1.00;;
5343;SDS011;2694;48.954;8.928;2023-04-03T14:44:00;6.00;;;1.20;;
5343;SDS011;2694;48.954;8.928;2023-04-03T14:46:28;1.85;;;1.10;;
5343;SDS011;2694;48.954;8.928;2023-04-03T14:48:57;4.93;;;1.38;;
5343;SDS011;2694;48.954;8.928;2023-04-03T14:51:24;2.70;;;1.10;;
5343;SDS011;2694;48.954;8.928;2023-04-03T14:53:52;3.20;;;1.20;;
5343;SDS011;2694;48.954;8.928;2023-04-03T14:56:21;2.42;;;1.20;;
5343;SDS011;2694;48.954;8.928;2023-04-03T14:58:53;4.47;;;1.05;;
5343;SDS011;2694;48.954;8.928;2023-04-03T15:01:23;2.90;;;0.98;;
5343;SDS011;2694;48.954;8.928;2023-04-03T15:03:50;4.10;;;1.40;;
5343;SDS011;2694;48.954;8.928;2023-04-03T15:06:17;5.25;;;1.38;;
5343;SDS011;2694;48.954;8.928;2023-04-03T15:08:45;3.95;;;1.20;;
5343;SDS011;2694;48.954;8.928;2023-04-03T15:11:13;2.22;;;1.02;;
5343;SDS011;2694;48.954;8.928;2023-04-03T15:13:41;4.25;;;1.20;;
5343;SDS011;2694;48.954;8.928;2023-04-03T15:16:11;3.80;;;1.30;;
5343;SDS011;2694;48.954;8.928;2023-04-03T15:18:42;3.30;;;1.40;;
5343;SDS011;2694;48.954;8.928;2023-04-03T15:21:10;5.10;;;1.20;;
5343;SDS011;2694;48.954;8.928;2023-04-03T15:23:38;4.10;;;1.08;;
5343;SDS011;2694;48.954;8.928;2023-04-03T15:26:05;4.37;;;1.00;;
5343;SDS011;2694;48.954;8.928;2023-04-03T15:28:32;3.90;;;1.48;;
5343;SDS011;2694;48.954;8.928;2023-04-03T15:31:01;2.80;;;1.20;;
5343;SDS011;2694;48.954;8.928;2023-04-03T15:33:29;6.70;;;2.30;;
5343;SDS011;2694;48.954;8.928;2023-04-03T15:35:58;3.17;;;1.50;;
5343;SDS011;2694;48.954;8.928;2023-04-03T15:38:25;4.88;;;1.65;;
5343;SDS011;2694;48.954;8.928;2023-04-03T15:40:52;6.85;;;1.90;;
5343;SDS011;2694;48.954;8.928;2023-04-03T15:43:20;2.90;;;1.40;;
5343;SDS011;2694;48.954;8.928;2023-04-03T15:45:48;1.90;;;1.08;;
5343;SDS011;2694;48.954;8.928;2023-04-03T15:48:16;2.20;;;1.05;;
5343;SDS011;2694;48.954;8.928;2023-04-03T15:50:43;2.70;;;1.30;;
5343;SDS011;2694;48.954;8.928;2023-04-03T15:53:11;3.90;;;1.40;;
5343;SDS011;2694;48.954;8.928;2023-04-03T15:55:38;2.30;;;1.23;;
5343;SDS011;2694;48.954;8.928;2023-04-03T15:58:06;3.08;;;1.10;;
5343;SDS011;2694;48.954;8.928;2023-04-03T16:00:33;3.45;;;1.15;;
5343;SDS011;2694;48.954;8.928;2023-04-03T16:03:04;2.38;;;1.17;;